createdAt,value
2022-12-11T00:02:08.198Z,59.87
2022-12-11T00:04:35.429Z,59.58
2022-12-11T00:07:02.357Z,59.23
2022-12-11T00:09:29.353Z,60.04
2022-12-11T00:11:56.373Z,58.83
2022-12-11T00:14:23.044Z,59.03
2022-12-11T00:16:49.812Z,58.88
2022-12-11T00:19:17.200Z,58.70
2022-12-11T00:21:44.529Z,58.62
2022-12-11T00:24:11.505Z,58.89
2022-12-11T00:26:38.845Z,60.34
2022-12-11T00:29:05.910Z,59.18
2022-12-11T00:31:32.587Z,58.80
2022-12-11T00:34:01.345Z,59.02
2022-12-11T00:36:28.318Z,59.82
2022-12-11T00:38:55.307Z,59.86
2022-12-11T00:41:22.231Z,60.01
2022-12-11T00:43:49.060Z,59.96
2022-12-11T00:46:15.948Z,59.34
2022-12-11T00:48:42.956Z,60.04
2022-12-11T00:51:10.926Z,59.93
2022-12-11T00:53:39.044Z,60.00
2022-12-11T00:56:14.573Z,60.63
2022-12-11T00:58:41.381Z,60.29
2022-12-11T01:01:11.498Z,60.22
2022-12-11T01:03:38.482Z,60.61
2022-12-11T01:06:06.879Z,60.58
2022-12-11T01:08:38.487Z,60.95
2022-12-11T01:11:08.876Z,60.86
2022-12-11T01:13:35.629Z,61.39
2022-12-11T01:16:07.956Z,61.61
2022-12-11T01:18:34.985Z,61.39
2022-12-11T01:21:06.973Z,60.53
2022-12-11T01:23:33.882Z,60.66
2022-12-11T01:26:13.025Z,61.42
2022-12-11T01:28:40.431Z,61.25
2022-12-11T01:31:16.971Z,60.78
2022-12-11T01:33:43.698Z,60.74
2022-12-11T01:36:16.708Z,60.38
2022-12-11T01:38:44.131Z,60.02
2022-12-11T01:41:11.388Z,60.26
2022-12-11T01:44:06.162Z,60.33
2022-12-11T01:46:36.270Z,60.80
2022-12-11T01:49:07.389Z,60.80
2022-12-11T01:51:40.504Z,60.37
2022-12-11T01:54:11.353Z,60.94
2022-12-11T01:56:39.900Z,61.44
2022-12-11T01:59:09.452Z,61.12
2022-12-11T02:01:51.057Z,61.06
2022-12-11T02:04:19.929Z,61.28
2022-12-11T02:06:49.118Z,60.90
2022-12-11T02:09:23.159Z,60.39
2022-12-11T02:12:00.446Z,59.48
2022-12-11T02:14:49.787Z,59.33
2022-12-11T02:17:24.013Z,59.07
2022-12-11T02:20:22.149Z,60.20
2022-12-11T02:23:13.314Z,60.19
2022-12-11T02:26:15.206Z,60.58
2022-12-11T02:28:55.897Z,59.42
2022-12-11T02:31:41.106Z,59.41
2022-12-11T02:34:13.780Z,60.39
2022-12-11T02:36:45.344Z,60.64
2022-12-11T02:39:15.046Z,61.96
2022-12-11T02:41:46.969Z,62.03
2022-12-11T02:44:17.553Z,61.85
2022-12-11T02:46:45.166Z,62.13
2022-12-11T02:49:13.642Z,60.90
2022-12-11T02:51:41.717Z,60.57
2022-12-11T02:54:16.433Z,59.75
2022-12-11T02:57:11.406Z,60.34
2022-12-11T02:59:46.433Z,60.53
2022-12-11T03:02:15.251Z,60.11
2022-12-11T03:04:43.032Z,59.63
2022-12-11T03:07:17.997Z,60.07
2022-12-11T03:09:47.228Z,60.52
2022-12-11T03:12:18.937Z,59.00
2022-12-11T03:14:46.328Z,60.68
2022-12-11T03:17:18.136Z,60.67
2022-12-11T03:20:07.375Z,60.88
2022-12-11T03:22:43.615Z,61.25
2022-12-11T03:25:17.992Z,59.81
2022-12-11T03:27:55.539Z,60.85
2022-12-11T03:30:24.273Z,61.86
2022-12-11T03:32:58.801Z,61.22
2022-12-11T03:35:34.943Z,61.08
2022-12-11T03:38:06.393Z,61.53
2022-12-11T03:40:35.614Z,60.35
2022-12-11T03:43:03.060Z,60.64
2022-12-11T03:45:30.550Z,60.59
2022-12-11T03:48:01.684Z,60.83
2022-12-11T03:50:32.254Z,60.74
2022-12-11T03:53:01.897Z,60.44
2022-12-11T03:55:30.921Z,60.50
2022-12-11T03:57:57.806Z,60.32
2022-12-11T04:00:24.543Z,60.43
2022-12-11T04:03:13.615Z,60.48
2022-12-11T04:05:47.080Z,61.10
2022-12-11T04:08:15.139Z,61.52
2022-12-11T04:10:42.285Z,61.16
2022-12-11T04:13:10.547Z,61.61
2022-12-11T04:15:38.524Z,61.72
2022-12-11T04:18:25.426Z,62.13
2022-12-11T04:21:15.310Z,62.90
2022-12-11T04:24:00.638Z,62.30
2022-12-11T04:26:27.362Z,62.25
2022-12-11T04:28:54.044Z,62.24
2022-12-11T04:31:22.438Z,62.31
2022-12-11T04:33:49.326Z,62.33
2022-12-11T04:36:16.393Z,62.41
2022-12-11T04:38:43.025Z,62.55
2022-12-11T04:41:12.794Z,62.81
2022-12-11T04:43:40.165Z,62.58
2022-12-11T04:46:10.315Z,62.46
2022-12-11T04:48:39.506Z,62.23
2022-12-11T04:51:07.282Z,62.38
2022-12-11T04:53:35.228Z,62.15
2022-12-11T04:56:05.154Z,62.42
2022-12-11T04:58:31.873Z,62.50
2022-12-11T05:01:00.042Z,62.47
2022-12-11T05:03:26.890Z,62.27
2022-12-11T05:05:53.871Z,62.35
2022-12-11T05:08:21.974Z,62.22
2022-12-11T05:10:59.577Z,62.27
2022-12-11T05:13:27.548Z,62.49
2022-12-11T05:15:54.270Z,62.45
2022-12-11T05:18:21.788Z,63.08
2022-12-11T05:21:02.926Z,63.32
2022-12-11T05:23:29.990Z,63.56
2022-12-11T05:26:00.796Z,63.04
2022-12-11T05:28:30.967Z,62.89
2022-12-11T05:30:57.932Z,63.09
2022-12-11T05:33:25.415Z,63.31
2022-12-11T05:35:52.453Z,63.10
2022-12-11T05:38:21.520Z,62.97
2022-12-11T05:41:07.928Z,63.36
2022-12-11T05:43:36.570Z,62.93
2022-12-11T05:46:24.589Z,62.38
2022-12-11T05:48:54.073Z,62.84
2022-12-11T05:51:22.457Z,63.03
2022-12-11T05:53:50.552Z,63.09
2022-12-11T05:56:21.203Z,62.17
2022-12-11T05:58:49.458Z,62.88
2022-12-11T06:01:20.012Z,62.67
2022-12-11T06:03:46.888Z,62.95
2022-12-11T06:06:14.496Z,62.50
2022-12-11T06:08:41.606Z,63.16
2022-12-11T06:11:09.025Z,63.08
2022-12-11T06:13:35.778Z,61.74
2022-12-11T06:16:07.430Z,62.33
2022-12-11T06:18:40.751Z,62.15
2022-12-11T06:21:32.093Z,61.75
2022-12-11T06:24:02.798Z,62.24
2022-12-11T06:26:29.982Z,62.21
2022-12-11T06:28:56.643Z,61.38
2022-12-11T06:31:23.420Z,62.02
2022-12-11T06:33:50.321Z,61.52
2022-12-11T06:36:21.720Z,61.60
2022-12-11T06:38:48.566Z,61.72
2022-12-11T06:41:15.466Z,61.76
2022-12-11T06:43:43.047Z,61.76
2022-12-11T06:46:15.930Z,62.12
2022-12-11T06:48:43.845Z,62.25
2022-12-11T06:51:15.790Z,62.01
2022-12-11T06:53:44.161Z,62.20
2022-12-11T06:56:15.719Z,62.13
2022-12-11T06:58:44.265Z,61.86
2022-12-11T07:01:19.920Z,62.43
2022-12-11T07:03:49.352Z,62.29
2022-12-11T07:06:17.189Z,61.88
2022-12-11T07:08:44.554Z,62.77
2022-12-11T07:11:13.967Z,62.92
2022-12-11T07:13:42.213Z,62.74
2022-12-11T07:16:11.215Z,61.60
2022-12-11T07:18:42.801Z,61.16
2022-12-11T07:21:11.710Z,60.93
2022-12-11T07:23:38.639Z,61.91
2022-12-11T07:26:07.792Z,60.83
2022-12-11T07:28:35.256Z,61.35
2022-12-11T07:31:27.339Z,61.45
2022-12-11T07:34:00.177Z,61.40
2022-12-11T07:36:28.321Z,61.55
2022-12-11T07:38:55.231Z,61.26
2022-12-11T07:41:23.159Z,60.81
2022-12-11T07:43:54.044Z,61.62
2022-12-11T07:46:24.065Z,61.57
2022-12-11T07:48:51.475Z,60.82
2022-12-11T07:51:27.749Z,61.26
2022-12-11T07:53:57.449Z,60.40
2022-12-11T07:56:24.593Z,60.39
2022-12-11T07:58:51.343Z,60.56
2022-12-11T08:01:24.461Z,60.56
2022-12-11T08:03:51.581Z,60.87
2022-12-11T08:06:21.442Z,61.50
2022-12-11T08:08:48.210Z,60.85
2022-12-11T08:11:15.752Z,61.32
2022-12-11T08:13:44.347Z,60.09
2022-12-11T08:16:14.067Z,59.87
2022-12-11T08:18:41.945Z,59.97
2022-12-11T08:21:16.790Z,59.53
2022-12-11T08:23:44.114Z,60.90
2022-12-11T08:26:19.561Z,60.74
2022-12-11T08:28:46.338Z,61.04
2022-12-11T08:31:14.873Z,60.94
2022-12-11T08:33:42.223Z,60.67
2022-12-11T08:36:11.724Z,60.78
2022-12-11T08:38:38.784Z,60.71
2022-12-11T08:41:31.774Z,61.02
2022-12-11T08:44:00.504Z,61.36
2022-12-11T08:46:30.620Z,61.91
2022-12-11T08:48:58.334Z,61.71
2022-12-11T08:51:27.298Z,61.80
2022-12-11T08:53:59.191Z,61.89
2022-12-11T08:56:26.806Z,62.15
2022-12-11T08:58:54.072Z,62.01
2022-12-11T09:01:23.672Z,61.70
2022-12-11T09:03:51.675Z,60.95
2022-12-11T09:06:21.999Z,61.74
2022-12-11T09:08:53.112Z,61.54
2022-12-11T09:11:26.113Z,61.56
2022-12-11T09:13:53.451Z,61.00
2022-12-11T09:16:21.882Z,61.71
2022-12-11T09:18:50.564Z,61.38
2022-12-11T09:21:19.839Z,60.20
2022-12-11T09:23:47.188Z,60.04
2022-12-11T09:26:16.274Z,60.76
2022-12-11T09:28:46.623Z,60.91
2022-12-11T09:31:34.184Z,60.77
2022-12-11T09:34:04.875Z,61.32
2022-12-11T09:36:34.650Z,60.63
2022-12-11T09:39:03.731Z,60.05
2022-12-11T09:42:35.466Z,60.19
2022-12-11T09:45:04.355Z,61.06
2022-12-11T09:47:30.988Z,61.67
2022-12-11T09:50:15.721Z,61.66
2022-12-11T09:53:00.597Z,60.35
2022-12-11T09:55:37.959Z,61.54
2022-12-11T09:58:27.800Z,60.79
2022-12-11T10:01:00.812Z,60.77
2022-12-11T10:04:02.434Z,61.51
2022-12-11T10:06:38.398Z,60.99
2022-12-11T10:09:34.675Z,61.25
2022-12-11T10:12:12.582Z,61.28
2022-12-11T10:15:21.414Z,61.06
2022-12-11T10:17:50.421Z,61.19
2022-12-11T10:20:23.875Z,61.54
2022-12-11T10:22:52.329Z,61.21
2022-12-11T10:25:27.367Z,61.72
2022-12-11T10:27:54.419Z,61.62
2022-12-11T10:30:25.200Z,62.14
2022-12-11T10:33:13.733Z,62.53
2022-12-11T10:35:51.638Z,61.42
2022-12-11T10:38:27.478Z,61.31
2022-12-11T10:41:18.025Z,61.98
2022-12-11T10:43:47.773Z,61.81
2022-12-11T10:46:28.886Z,62.66
2022-12-11T10:48:58.092Z,62.25
2022-12-11T10:51:26.652Z,61.79
2022-12-11T10:53:57.262Z,62.27
2022-12-11T10:56:32.739Z,62.90
2022-12-11T10:59:01.290Z,63.17
2022-12-11T11:01:32.582Z,63.34
2022-12-11T11:04:06.980Z,63.64
2022-12-11T11:06:33.970Z,63.68
2022-12-11T11:09:01.679Z,63.49
2022-12-11T11:11:36.772Z,63.51
2022-12-11T11:14:16.553Z,63.63
2022-12-11T11:16:47.143Z,63.61
2022-12-11T11:19:35.061Z,63.99
2022-12-11T11:22:28.150Z,63.89
2022-12-11T11:24:58.319Z,63.14
2022-12-11T11:27:40.101Z,63.45
2022-12-11T11:30:19.470Z,63.04
2022-12-11T11:32:46.449Z,63.10
2022-12-11T11:35:13.472Z,62.59
2022-12-11T11:37:44.499Z,63.20
2022-12-11T11:40:23.558Z,62.55
2022-12-11T11:43:09.069Z,63.26
2022-12-11T11:45:39.591Z,61.96
2022-12-11T11:48:25.609Z,62.01
2022-12-11T11:50:54.024Z,62.49
2022-12-11T11:53:41.548Z,61.94
2022-12-11T11:56:11.063Z,61.61
2022-12-11T11:58:59.580Z,60.85
2022-12-11T12:01:26.895Z,61.10
2022-12-11T12:03:54.298Z,61.41
2022-12-11T12:06:47.462Z,62.21
2022-12-11T12:09:36.266Z,62.03
2022-12-11T12:12:08.695Z,61.14
2022-12-11T12:14:53.716Z,60.71
2022-12-11T12:17:26.070Z,61.74
2022-12-11T12:20:38.869Z,62.15
2022-12-11T12:23:30.726Z,62.80
2022-12-11T12:26:14.865Z,62.35
2022-12-11T12:28:57.185Z,62.11
2022-12-11T12:32:01.174Z,61.85
2022-12-11T12:35:01.594Z,62.63
2022-12-11T12:37:47.285Z,61.80
2022-12-11T12:40:22.963Z,61.46
2022-12-11T12:43:27.548Z,61.07
2022-12-11T12:46:19.053Z,61.75
2022-12-11T12:48:45.834Z,62.12
2022-12-11T12:51:15.116Z,61.92
2022-12-11T12:53:48.301Z,61.96
2022-12-11T12:56:16.066Z,61.44
2022-12-11T12:58:45.621Z,61.94
2022-12-11T13:01:12.225Z,61.66
2022-12-11T13:04:05.761Z,61.51
2022-12-11T13:06:47.154Z,61.77
2022-12-11T13:09:26.271Z,62.22
2022-12-11T13:11:57.756Z,61.52
2022-12-11T13:14:31.808Z,61.77
2022-12-11T13:17:42.801Z,62.29
2022-12-11T13:20:15.087Z,61.71
2022-12-11T13:22:56.438Z,61.08
2022-12-11T13:25:25.350Z,61.99
2022-12-11T13:27:52.445Z,61.86
2022-12-11T13:30:19.238Z,62.47
2022-12-11T13:33:06.102Z,62.02
2022-12-11T13:35:34.502Z,61.25
2022-12-11T13:38:16.857Z,61.73
2022-12-11T13:40:46.605Z,61.62
2022-12-11T13:43:18.395Z,61.34
2022-12-11T13:46:04.118Z,61.24
2022-12-11T13:48:39.227Z,61.06
2022-12-11T13:51:07.073Z,61.25
2022-12-11T13:53:34.049Z,61.73
2022-12-11T13:56:03.744Z,61.59
2022-12-11T13:58:34.778Z,60.98
2022-12-11T14:01:07.849Z,61.59
2022-12-11T14:03:35.460Z,61.45
2022-12-11T14:06:03.661Z,60.95
2022-12-11T14:08:40.195Z,61.18
2022-12-11T14:11:07.605Z,61.50
2022-12-11T14:13:37.624Z,61.93
2022-12-11T14:16:06.222Z,61.18
2022-12-11T14:18:35.378Z,60.80
2022-12-11T14:21:06.186Z,60.63
2022-12-11T14:23:34.898Z,60.60
2022-12-11T14:26:05.010Z,61.14
2022-12-11T14:28:41.172Z,60.99
2022-12-11T14:31:08.114Z,60.00
2022-12-11T14:33:43.792Z,60.06
2022-12-11T14:36:11.348Z,61.54
2022-12-11T14:38:46.199Z,60.71
2022-12-11T14:41:25.073Z,60.57
2022-12-11T14:43:57.131Z,61.10
2022-12-11T14:46:41.530Z,61.72
2022-12-11T14:49:35.402Z,60.84
2022-12-11T14:52:04.024Z,61.05
2022-12-11T14:54:41.276Z,61.12
2022-12-11T14:57:14.249Z,60.56
2022-12-11T14:59:46.265Z,61.03
2022-12-11T15:02:27.178Z,60.39
2022-12-11T15:05:12.455Z,60.91
2022-12-11T15:07:41.960Z,61.67
2022-12-11T15:10:22.732Z,61.30
2022-12-11T15:12:49.652Z,61.06
2022-12-11T15:15:17.840Z,61.26
2022-12-11T15:17:51.156Z,61.04
2022-12-11T15:20:25.946Z,60.51
2022-12-11T15:22:54.071Z,59.78
2022-12-11T15:25:24.068Z,60.42
2022-12-11T15:27:54.228Z,59.63
2022-12-11T15:30:26.523Z,60.05
2022-12-11T15:33:17.519Z,59.61
2022-12-11T15:36:01.747Z,60.55
2022-12-11T15:38:37.420Z,59.71
2022-12-11T15:41:04.546Z,60.20
2022-12-11T15:43:36.151Z,60.46
2022-12-11T15:46:06.542Z,60.13
2022-12-11T15:48:33.598Z,59.64
2022-12-11T15:51:00.275Z,59.93
2022-12-11T15:53:27.142Z,60.09
2022-12-11T15:55:54.062Z,59.90
2022-12-11T15:58:24.217Z,60.46
2022-12-11T16:00:51.092Z,61.22
2022-12-11T16:03:19.541Z,60.57
2022-12-11T16:05:46.733Z,61.14
2022-12-11T16:08:15.841Z,60.41
2022-12-11T16:10:44.318Z,59.73
2022-12-11T16:13:12.126Z,59.32
2022-12-11T16:15:41.622Z,59.21
2022-12-11T16:18:11.963Z,59.10
2022-12-11T16:20:40.094Z,59.89
2022-12-11T16:23:10.105Z,60.60
2022-12-11T16:25:39.084Z,59.57
2022-12-11T16:28:36.686Z,59.21
2022-12-11T16:31:04.309Z,60.09
2022-12-11T16:33:43.302Z,59.88
2022-12-11T16:36:23.032Z,59.92
2022-12-11T16:39:04.555Z,60.44
2022-12-11T16:41:32.588Z,60.21
2022-12-11T16:44:12.984Z,60.04
2022-12-11T16:49:53.569Z,60.15
2022-12-11T16:52:39.819Z,59.98
2022-12-11T16:55:07.569Z,59.74
2022-12-11T16:57:34.728Z,59.60
2022-12-11T17:00:01.486Z,60.61
2022-12-11T17:02:28.244Z,59.27
2022-12-11T17:04:57.705Z,59.45
2022-12-11T17:07:24.819Z,59.66
2022-12-11T17:09:52.003Z,59.26
2022-12-11T17:12:18.783Z,59.25
2022-12-11T17:14:45.595Z,59.76
2022-12-11T17:17:12.214Z,59.70
2022-12-11T17:19:39.010Z,60.32
2022-12-11T17:22:05.658Z,60.70
2022-12-11T17:24:32.552Z,60.99
2022-12-11T17:26:59.782Z,61.60
2022-12-11T17:29:26.778Z,61.09
2022-12-11T17:31:53.493Z,60.40
2022-12-11T17:34:20.210Z,60.09
2022-12-11T17:36:46.868Z,59.39
2022-12-11T17:39:16.267Z,60.70
2022-12-11T17:41:42.958Z,60.17
2022-12-11T17:44:09.925Z,60.31
2022-12-11T17:46:36.748Z,60.37
2022-12-11T17:49:04.678Z,59.75
2022-12-11T17:51:33.037Z,59.69
2022-12-11T17:53:59.733Z,60.30
2022-12-11T17:56:26.873Z,59.14
2022-12-11T17:58:53.707Z,59.33
2022-12-11T18:01:20.821Z,59.52
2022-12-11T18:03:47.749Z,59.76
2022-12-11T18:06:15.692Z,60.11
2022-12-11T18:08:43.005Z,59.38
2022-12-11T18:11:17.301Z,60.05
2022-12-11T18:13:45.041Z,59.58
2022-12-11T18:16:33.030Z,60.33
2022-12-11T18:18:59.756Z,60.25
2022-12-11T18:21:31.751Z,59.46
2022-12-11T18:23:59.639Z,60.03
2022-12-11T18:26:27.636Z,59.83
2022-12-11T18:28:57.101Z,59.62
2022-12-11T18:31:24.341Z,58.63
2022-12-11T18:33:51.982Z,57.91
2022-12-11T18:36:20.129Z,59.42
2022-12-11T18:38:47.949Z,59.27
2022-12-11T18:41:15.914Z,58.73
2022-12-11T18:43:42.754Z,58.59
2022-12-11T18:46:12.738Z,59.23
2022-12-11T18:48:39.925Z,60.60
2022-12-11T18:51:09.185Z,60.16
2022-12-11T18:53:37.070Z,61.38
2022-12-11T18:56:12.418Z,61.77
2022-12-11T18:58:39.836Z,60.71
2022-12-11T19:01:13.830Z,60.39
2022-12-11T19:03:44.257Z,61.58
2022-12-11T19:06:18.857Z,60.96
2022-12-11T19:08:46.726Z,60.83
2022-12-11T19:11:18.523Z,60.97
2022-12-11T19:13:45.749Z,59.99
2022-12-11T19:16:22.159Z,59.86
2022-12-11T19:18:49.574Z,60.10
2022-12-11T19:21:17.354Z,58.90
2022-12-11T19:23:45.201Z,59.75
2022-12-11T19:26:21.433Z,59.93
2022-12-11T19:28:49.745Z,59.01
2022-12-11T19:31:19.837Z,60.31
2022-12-11T19:33:47.105Z,59.58
2022-12-11T19:36:16.773Z,59.25
2022-12-11T19:38:45.255Z,60.50
2022-12-11T19:41:18.360Z,60.52
2022-12-11T19:43:45.401Z,60.35
2022-12-11T19:46:13.302Z,59.56
2022-12-11T19:48:41.770Z,60.05
2022-12-11T19:51:14.279Z,59.41
2022-12-11T19:53:41.938Z,59.83
2022-12-11T19:56:10.224Z,59.61
2022-12-11T19:58:38.025Z,59.22
2022-12-11T20:01:05.743Z,58.84
2022-12-11T20:03:33.529Z,59.05
2022-12-11T20:06:08.351Z,60.08
2022-12-11T20:08:44.654Z,60.40
2022-12-11T20:11:18.342Z,59.33
2022-12-11T20:13:46.773Z,59.44
2022-12-11T20:16:14.750Z,60.07
2022-12-11T20:18:41.893Z,59.72
2022-12-11T20:21:12.300Z,60.12
2022-12-11T20:23:39.402Z,59.61
2022-12-11T20:26:08.519Z,59.46
2022-12-11T20:28:35.741Z,59.75
2022-12-11T20:31:16.552Z,60.26
2022-12-11T20:33:48.716Z,59.92
2022-12-11T20:36:19.933Z,58.63
2022-12-11T20:38:46.777Z,59.14
2022-12-11T20:41:16.145Z,59.52
2022-12-11T20:43:43.427Z,60.25
2022-12-11T20:46:12.500Z,60.10
2022-12-11T20:48:40.833Z,59.87
2022-12-11T20:51:09.907Z,59.43
2022-12-11T20:53:37.792Z,58.79
2022-12-11T20:56:17.196Z,59.74
2022-12-11T20:58:45.128Z,61.22
2022-12-11T21:01:16.425Z,60.14
2022-12-11T21:03:43.580Z,60.80
2022-12-11T21:06:30.775Z,60.06
2022-12-11T21:08:59.269Z,59.54
2022-12-11T21:11:26.212Z,59.26
2022-12-11T21:13:53.452Z,59.40
2022-12-11T21:16:20.537Z,59.45
2022-12-11T21:18:48.312Z,58.64
2022-12-11T21:21:16.454Z,59.23
2022-12-11T21:23:44.061Z,59.40
2022-12-11T21:26:10.993Z,59.92
2022-12-11T21:28:37.785Z,60.42
2022-12-11T21:31:11.731Z,60.25
2022-12-11T21:33:39.013Z,60.39
2022-12-11T21:36:07.154Z,60.23
2022-12-11T21:38:34.384Z,58.81
2022-12-11T21:41:27.705Z,59.38
2022-12-11T21:45:25.532Z,59.14
2022-12-11T21:46:46.258Z,59.73
2022-12-11T21:49:13.061Z,59.84
2022-12-11T21:51:46.805Z,58.99
2022-12-11T21:54:16.629Z,59.15
2022-12-11T21:56:44.788Z,58.99
2022-12-11T21:59:11.735Z,59.17
2022-12-11T22:01:42.194Z,58.38
2022-12-11T22:04:10.553Z,58.92
2022-12-11T22:06:37.584Z,59.39
2022-12-11T22:09:05.683Z,59.28
2022-12-11T22:11:34.545Z,59.27
2022-12-11T22:14:02.121Z,59.05
2022-12-11T22:16:29.047Z,59.43
2022-12-11T22:18:56.160Z,59.18
2022-12-11T22:21:22.943Z,60.16
2022-12-11T22:23:49.801Z,58.80
2022-12-11T22:26:20.109Z,59.51
2022-12-11T22:28:47.006Z,59.20
2022-12-11T22:31:16.953Z,59.29
2022-12-11T22:33:44.155Z,59.40
2022-12-11T22:36:11.781Z,59.74
2022-12-11T22:38:41.061Z,59.44
2022-12-11T22:41:16.328Z,59.34
2022-12-11T22:43:47.312Z,59.19
2022-12-11T22:46:19.004Z,58.97
2022-12-11T22:48:45.845Z,58.58
2022-12-11T22:51:13.165Z,58.68
2022-12-11T22:53:40.063Z,58.34
2022-12-11T22:56:08.417Z,59.34
2022-12-11T22:58:35.743Z,58.24
2022-12-11T23:01:13.247Z,59.08
2022-12-11T23:03:40.566Z,59.66
2022-12-11T23:06:11.237Z,59.18
2022-12-11T23:08:39.236Z,58.78
2022-12-11T23:11:18.516Z,59.25
2022-12-11T23:13:45.397Z,58.21
2022-12-11T23:16:13.155Z,57.83
2022-12-11T23:18:40.442Z,56.89
2022-12-11T23:21:08.088Z,58.53
2022-12-11T23:23:35.143Z,57.84
2022-12-11T23:26:04.840Z,59.13
2022-12-11T23:28:32.092Z,58.97
2022-12-11T23:30:58.876Z,58.54
2022-12-11T23:33:26.123Z,59.49
2022-12-11T23:35:52.819Z,58.91
2022-12-11T23:38:20.322Z,58.66
2022-12-11T23:40:47.166Z,58.50
2022-12-11T23:43:13.864Z,58.12
2022-12-11T23:45:44.403Z,58.42
2022-12-11T23:48:12.710Z,57.67
2022-12-11T23:50:41.147Z,57.99
2022-12-11T23:53:07.879Z,58.05
2022-12-11T23:55:34.787Z,58.29
2022-12-11T23:58:01.535Z,59.39
